Time;durP1;ratioP1;P1;durP2;ratioP2;P2;SDS_P1;SDS_P2;PMS_P1;PMS_P2;Temp;Humidity;BMP_temperature;BMP_pressure;BME280_temperature;BME280_humidity;BME280_pressure;Samples;Min_cycle;Max_cycle;Signal;HPM_P1;HPM_P2
2023/03/14 00:01:55;;;;;;;6.32;0.50;;;;;;;4.88;79.77;97293.13;4982788;28;20059;-76
2023/03/14 00:04:22;;;;;;;2.75;0.22;;;;;;;4.87;79.88;97275.94;4988579;28;20057;-76
2023/03/14 00:06:49;;;;;;;3.50;0.20;;;;;;;4.87;79.78;97283.69;4978193;28;20518;-76
2023/03/14 00:09:17;;;;;;;1.17;0.20;;;;;;;4.88;79.62;97285.34;4972603;28;20057;-76
2023/03/14 00:11:45;;;;;;;3.13;0.20;;;;;;;4.88;79.50;97268.09;4985819;28;20046;-77
2023/03/14 00:14:12;;;;;;;0.70;0.20;;;;;;;4.90;79.70;97275.78;4990891;28;20069;-76
2023/03/14 00:16:39;;;;;;;5.70;0.20;;;;;;;4.87;79.63;97268.19;4987681;28;20057;-76
2023/03/14 00:19:06;;;;;;;5.07;0.30;;;;;;;4.86;79.46;97266.50;4975736;28;20054;-77
2023/03/14 00:21:33;;;;;;;6.82;0.30;;;;;;;4.78;79.34;97264.31;4987294;28;20046;-77
2023/03/14 00:24:00;;;;;;;0.35;0.17;;;;;;;4.90;79.47;97268.84;4992035;28;20446;-77
2023/03/14 00:26:28;;;;;;;1.77;0.38;;;;;;;4.90;79.58;97257.69;4978870;28;20058;-77
2023/03/14 00:28:56;;;;;;;3.60;0.28;;;;;;;4.90;79.47;97258.50;4979746;28;20053;-77
2023/03/14 00:31:23;;;;;;;1.88;0.10;;;;;;;4.85;79.12;97260.50;4986233;28;20047;-77
2023/03/14 00:33:52;;;;;;;5.72;0.20;;;;;;;4.90;79.33;97263.69;4979460;28;20459;-76
2023/03/14 00:36:20;;;;;;;2.97;1.23;;;;;;;4.91;79.34;97259.34;4987928;28;20057;-77
2023/03/14 00:38:50;;;;;;;1.42;0.57;;;;;;;4.91;79.44;97261.91;4976733;28;20049;-77
2023/03/14 00:41:20;;;;;;;1.77;0.25;;;;;;;4.91;79.67;97255.00;4990266;28;20046;-77
2023/03/14 00:43:48;;;;;;;5.30;0.28;;;;;;;4.92;79.46;97261.00;4984857;28;20050;-77
2023/03/14 00:46:15;;;;;;;1.75;0.20;;;;;;;4.83;79.44;97251.13;4975183;28;20057;-77
2023/03/14 00:48:42;;;;;;;2.13;0.30;;;;;;;4.92;79.71;97255.81;4991306;28;20388;-77
2023/03/14 00:51:11;;;;;;;2.22;0.20;;;;;;;4.93;79.41;97260.94;4978439;28;20057;-77
2023/03/14 00:53:39;;;;;;;0.30;0.10;;;;;;;4.93;79.60;97257.50;4983365;28;20127;-78
2023/03/14 00:56:08;;;;;;;2.28;0.10;;;;;;;4.94;79.46;97259.19;4990923;28;20510;-76
2023/03/14 00:58:35;;;;;;;1.90;0.20;;;;;;;4.94;79.54;97243.66;4981289;28;20050;-77
2023/03/14 01:01:08;;;;;;;3.72;0.30;;;;;;;4.91;79.49;97249.00;4991307;28;20066;-77
2023/03/14 01:03:35;;;;;;;1.15;0.10;;;;;;;4.94;79.51;97254.84;4986702;28;20434;-77
2023/03/14 01:06:10;;;;;;;1.10;0.10;;;;;;;4.94;79.59;97256.59;4989674;28;20046;-77
2023/03/14 01:08:37;;;;;;;7.20;0.57;;;;;;;4.92;79.72;97240.31;4976016;28;20515;-78
2023/03/14 01:11:07;;;;;;;3.00;0.85;;;;;;;4.92;79.73;97240.31;4992718;28;20049;-77
2023/03/14 01:13:34;;;;;;;2.70;0.30;;;;;;;4.76;79.69;97213.59;4976452;28;20039;-77
2023/03/14 01:16:04;;;;;;;2.67;0.13;;;;;;;4.94;79.64;97244.50;4989803;28;20042;-77
2023/03/14 01:18:34;;;;;;;0.77;0.32;;;;;;;4.96;79.37;97249.59;4987418;28;20038;-77
2023/03/14 01:21:01;;;;;;;2.97;0.20;;;;;;;4.69;79.68;97189.78;4987386;28;20742;-78
2023/03/14 01:23:28;;;;;;;0.98;0.10;;;;;;;4.95;79.59;97240.16;4979630;28;20058;-77
2023/03/14 01:25:55;;;;;;;3.75;1.40;;;;;;;4.98;79.69;97240.00;4984376;28;20050;-77
2023/03/14 01:28:22;;;;;;;3.05;0.20;;;;;;;4.97;79.62;97230.56;4987353;28;20814;-76
2023/03/14 01:30:49;;;;;;;3.10;0.10;;;;;;;5.00;79.67;97239.91;4987723;28;20056;-78
2023/03/14 01:33:15;;;;;;;2.05;0.10;;;;;;;4.99;79.50;97246.00;4985462;28;20050;-77
2023/03/14 01:35:44;;;;;;;0.73;0.10;;;;;;;5.01;79.65;97250.19;4979473;28;20054;-77
2023/03/14 01:38:10;;;;;;;2.67;0.10;;;;;;;5.02;79.71;97249.28;4988190;28;20042;-77
2023/03/14 01:40:43;;;;;;;0.75;0.10;;;;;;;5.02;79.94;97246.69;4982545;28;20055;-77
2023/03/14 01:43:16;;;;;;;1.75;0.10;;;;;;;4.99;79.89;97246.00;4987708;28;20112;-77
2023/03/14 01:46:19;;;;;;;1.17;0.10;;;;;;;5.05;79.36;97250.88;4973062;28;20046;-78
2023/03/14 01:48:50;;;;;;;0.90;0.10;;;;;;;5.01;79.78;97251.91;4984079;28;20074;-77
2023/03/14 01:51:22;;;;;;;0.30;0.10;;;;;;;5.04;80.03;97256.94;4984641;28;20057;-77
2023/03/14 01:53:52;;;;;;;2.80;0.10;;;;;;;5.02;80.11;97262.19;4971281;28;20042;-78
2023/03/14 01:56:19;;;;;;;1.52;0.10;;;;;;;5.07;79.95;97270.56;4988805;28;20054;-78
2023/03/14 01:58:49;;;;;;;4.32;0.20;;;;;;;4.88;80.22;97239.63;4980890;28;20134;-78
2023/03/14 02:01:19;;;;;;;1.77;0.10;;;;;;;4.99;80.04;97256.34;4986303;28;20137;-77
2023/03/14 02:03:51;;;;;;;3.20;0.17;;;;;;;5.11;79.87;97281.56;4981645;28;20129;-78
2023/03/14 02:06:26;;;;;;;0.85;0.10;;;;;;;5.11;79.96;97285.00;4981002;28;20046;-77
2023/03/14 02:08:53;;;;;;;0.50;0.10;;;;;;;5.07;79.64;97278.31;4985056;28;20058;-78
2023/03/14 02:11:20;;;;;;;1.48;0.10;;;;;;;5.14;79.74;97294.34;4978734;28;20054;-78
2023/03/14 02:13:48;;;;;;;0.73;0.10;;;;;;;4.74;80.12;97227.41;4980091;28;20054;-78
2023/03/14 02:16:15;;;;;;;0.40;0.03;;;;;;;5.12;80.00;97296.16;4984081;28;20052;-78
2023/03/14 02:18:42;;;;;;;1.73;0.20;;;;;;;5.16;79.91;97305.47;4981210;28;20125;-78
2023/03/14 02:21:17;;;;;;;1.52;0.10;;;;;;;5.16;79.99;97287.34;4982528;28;20050;-78
2023/03/14 02:24:00;;;;;;;1.85;0.10;;;;;;;5.16;79.75;97285.59;4980945;28;20061;-78
2023/03/14 02:26:32;;;;;;;0.60;0.00;;;;;;;5.11;80.07;97279.81;4983666;28;20058;-78
2023/03/14 02:29:00;;;;;;;0.82;0.43;;;;;;;5.17;80.00;97289.00;4982375;28;20722;-78
2023/03/14 02:31:27;;;;;;;3.22;0.20;;;;;;;5.15;80.19;97283.94;4988412;28;20042;-78
2023/03/14 02:33:54;;;;;;;0.60;0.10;;;;;;;5.17;79.95;97292.44;4990091;28;20057;-78
2023/03/14 02:36:21;;;;;;;2.05;0.10;;;;;;;5.18;79.72;97296.72;4986628;28;20060;-78
2023/03/14 02:38:54;;;;;;;2.95;0.10;;;;;;;5.18;79.99;97306.22;4983067;28;20043;-78
2023/03/14 02:41:21;;;;;;;1.02;0.20;;;;;;;5.19;80.14;97308.72;4985497;28;20050;-78
2023/03/14 02:43:48;;;;;;;1.27;0.13;;;;;;;5.10;79.85;97298.84;4986060;28;20057;-78
2023/03/14 02:46:19;;;;;;;1.33;0.10;;;;;;;5.18;79.84;97301.88;4986683;28;20049;-78
2023/03/14 02:48:52;;;;;;;2.45;0.15;;;;;;;5.22;79.93;97312.06;4987555;28;20054;-78
2023/03/14 02:51:19;;;;;;;0.95;0.17;;;;;;;5.10;79.90;97301.44;4980001;28;20104;-78
2023/03/14 02:53:46;;;;;;;4.82;0.30;;;;;;;4.95;79.59;97263.41;4984989;28;20043;-78
2023/03/14 02:56:13;;;;;;;4.95;0.30;;;;;;;5.23;79.79;97304.22;4985172;28;20054;-78
2023/03/14 02:58:40;;;;;;;3.97;0.20;;;;;;;5.23;79.83;97305.97;4987407;28;20049;-78
2023/03/14 03:01:07;;;;;;;1.00;0.10;;;;;;;5.23;79.65;97311.97;4986620;28;20061;-77
2023/03/14 03:03:35;;;;;;;1.95;0.38;;;;;;;5.12;79.74;97289.28;4979355;28;20507;-78
2023/03/14 03:06:03;;;;;;;3.88;0.20;;;;;;;5.21;79.59;97302.63;4987413;28;20826;-77
2023/03/14 03:08:30;;;;;;;2.40;0.10;;;;;;;5.16;79.63;97295.13;4981568;28;20505;-78
2023/03/14 03:10:58;;;;;;;0.22;0.00;;;;;;;5.17;79.70;97304.53;4987981;28;20046;-78
2023/03/14 03:13:26;;;;;;;1.30;0.10;;;;;;;5.19;79.69;97305.31;4987754;28;20046;-78
2023/03/14 03:15:53;;;;;;;2.58;1.45;;;;;;;5.24;79.65;97315.41;4985842;28;20081;-78
2023/03/14 03:18:20;;;;;;;6.05;0.40;;;;;;;5.15;79.63;97306.34;4991948;28;20145;-78
2023/03/14 03:20:49;;;;;;;1.02;0.10;;;;;;;5.24;79.63;97320.59;4982617;28;20129;-78
2023/03/14 03:23:15;;;;;;;5.55;0.10;;;;;;;5.19;79.58;97319.06;4988497;28;20050;-79
2023/03/14 03:25:42;;;;;;;1.98;0.13;;;;;;;5.19;79.70;97332.00;4987927;28;20060;-78
2023/03/14 03:28:09;;;;;;;2.92;0.20;;;;;;;5.04;79.37;97306.94;4984612;28;20051;-78
2023/03/14 03:30:39;;;;;;;3.60;0.30;;;;;;;5.14;79.61;97323.63;4988825;28;20262;-78
2023/03/14 03:33:06;;;;;;;6.45;0.20;;;;;;;5.22;79.61;97335.34;4983198;28;20423;-78
2023/03/14 03:35:33;;;;;;;1.35;0.10;;;;;;;5.25;79.44;97342.97;4987256;28;20493;-78
2023/03/14 03:38:01;;;;;;;1.15;0.10;;;;;;;5.25;79.42;97345.53;4981914;28;20514;-78
2023/03/14 03:40:28;;;;;;;0.50;0.10;;;;;;;5.24;79.27;97349.88;4992559;28;20047;-78
2023/03/14 03:42:55;;;;;;;3.75;0.17;;;;;;;5.23;79.26;97340.44;4988530;28;20061;-78
2023/03/14 03:45:21;;;;;;;1.65;0.20;;;;;;;5.23;79.32;97331.84;4984752;28;20053;-79
2023/03/14 03:47:48;;;;;;;1.92;0.10;;;;;;;5.26;79.28;97344.63;4988333;28;20055;-78
2023/03/14 03:50:15;;;;;;;1.92;0.20;;;;;;;5.26;79.06;97344.63;4988726;28;20491;-72
2023/03/14 03:52:42;;;;;;;4.82;0.10;;;;;;;5.14;79.31;97333.16;4992113;28;20046;-73
2023/03/14 03:55:11;;;;;;;1.95;0.43;;;;;;;5.26;78.97;97344.63;4985072;28;20423;-74
2023/03/14 03:57:38;;;;;;;4.28;0.40;;;;;;;5.26;78.93;97352.38;4987851;28;20050;-73
2023/03/14 04:00:07;;;;;;;5.53;0.10;;;;;;;5.25;79.12;97341.19;4986973;28;20077;-74
2023/03/14 04:02:34;;;;;;;1.73;0.15;;;;;;;5.25;78.96;97361.06;4987804;28;20046;-74
2023/03/14 04:05:01;;;;;;;1.27;0.10;;;;;;;5.24;79.02;97354.25;4992495;28;20054;-74
2023/03/14 04:07:27;;;;;;;2.92;0.10;;;;;;;5.22;78.71;97364.66;4985957;28;20042;-73
2023/03/14 04:09:54;;;;;;;2.70;0.10;;;;;;;5.22;78.93;97371.59;4991493;28;20392;-74
2023/03/14 04:12:22;;;;;;;3.60;0.45;;;;;;;5.24;78.83;97380.13;4991220;28;20054;-74
2023/03/14 04:14:49;;;;;;;1.67;0.15;;;;;;;5.24;78.87;97380.13;4990625;28;20053;-73
2023/03/14 04:17:16;;;;;;;4.25;0.20;;;;;;;5.14;78.79;97357.28;4991786;28;20355;-74
2023/03/14 04:19:43;;;;;;;1.33;0.10;;;;;;;5.22;78.71;97371.59;4991256;28;20415;-74
2023/03/14 04:22:10;;;;;;;2.55;0.08;;;;;;;5.24;78.70;97374.94;4988486;28;20407;-73
2023/03/14 04:24:37;;;;;;;1.20;0.10;;;;;;;5.24;78.76;97380.94;4987883;28;20062;-73
2023/03/14 04:27:03;;;;;;;1.70;0.20;;;;;;;5.23;78.72;97381.00;4989267;28;20043;-73
2023/03/14 04:29:32;;;;;;;1.38;0.25;;;;;;;5.24;78.76;97385.28;4991245;28;20077;-74
2023/03/14 04:31:58;;;;;;;0.45;0.10;;;;;;;5.24;78.79;97372.34;4989750;28;20404;-74
2023/03/14 04:34:25;;;;;;;3.40;0.10;;;;;;;5.22;78.54;97374.16;4989069;28;20054;-74
2023/03/14 04:36:52;;;;;;;1.45;0.10;;;;;;;5.22;78.60;97371.59;4987459;28;20487;-74
2023/03/14 04:39:19;;;;;;;1.45;0.10;;;;;;;5.24;78.43;97385.28;4987100;28;20050;-74
2023/03/14 04:41:46;;;;;;;1.52;0.20;;;;;;;5.24;78.42;97395.63;4991711;28;20054;-74
2023/03/14 04:44:13;;;;;;;2.15;0.10;;;;;;;5.23;78.50;97391.34;4990960;28;20054;-74
2023/03/14 04:46:41;;;;;;;0.50;0.28;;;;;;;5.22;78.57;97397.47;4988982;28;20050;-74
2023/03/14 04:49:08;;;;;;;2.28;0.20;;;;;;;5.21;78.55;97406.13;4984939;28;20078;-74
2023/03/14 04:51:35;;;;;;;2.30;0.10;;;;;;;5.20;78.48;97420.81;4986566;28;20442;-74
2023/03/14 04:54:02;;;;;;;1.08;0.32;;;;;;;5.19;78.37;97424.31;4977688;28;20057;-74
2023/03/14 04:56:28;;;;;;;5.53;0.20;;;;;;;5.16;78.77;97414.97;4966766;28;20046;-73
2023/03/14 04:58:55;;;;;;;0.70;0.00;;;;;;;5.17;78.56;97429.56;4979580;28;20047;-74
2023/03/14 05:01:23;;;;;;;2.08;0.13;;;;;;;5.17;78.68;97429.56;4977278;28;20054;-74
2023/03/14 05:03:51;;;;;;;0.80;0.10;;;;;;;5.17;78.51;97428.72;4989445;28;20065;-74
2023/03/14 05:06:18;;;;;;;0.40;0.03;;;;;;;5.16;78.57;97434.81;4978818;28;20054;-74
2023/03/14 05:08:45;;;;;;;1.15;0.20;;;;;;;5.13;78.47;97433.22;4988333;28;20887;-74
2023/03/14 05:11:12;;;;;;;2.25;0.20;;;;;;;5.13;78.39;97422.03;4976802;28;20729;-73
2023/03/14 05:13:40;;;;;;;3.15;0.10;;;;;;;5.14;78.23;97431.47;4985572;28;20113;-74
2023/03/14 05:16:08;;;;;;;0.10;0.10;;;;;;;5.13;78.18;97438.41;4977963;28;20045;-75
2023/03/14 05:18:35;;;;;;;1.75;0.10;;;;;;;5.13;78.25;97447.91;4983164;28;20077;-73
2023/03/14 05:21:04;;;;;;;0.20;0.10;;;;;;;5.13;78.36;97460.84;4978344;28;20051;-74
2023/03/14 05:23:31;;;;;;;2.17;0.20;;;;;;;5.11;78.30;97447.97;4977767;28;20529;-74
2023/03/14 05:25:58;;;;;;;0.57;0.10;;;;;;;5.11;78.14;97471.25;4972034;28;20117;-74
2023/03/14 05:28:25;;;;;;;3.00;0.10;;;;;;;5.10;77.95;97467.00;4974174;28;20505;-74
2023/03/14 05:30:52;;;;;;;0.80;0.10;;;;;;;5.10;77.81;97482.53;4970300;28;20044;-74
2023/03/14 05:33:18;;;;;;;0.52;0.20;;;;;;;5.09;77.79;97483.44;4981049;28;20046;-74
2023/03/14 05:35:45;;;;;;;0.93;0.32;;;;;;;5.07;77.79;97492.22;4981730;28;20053;-74
2023/03/14 05:38:13;;;;;;;1.48;0.10;;;;;;;5.08;77.63;97499.88;4980198;28;20498;-74
2023/03/14 05:40:40;;;;;;;1.10;0.10;;;;;;;5.07;77.38;97505.97;4985294;28;20055;-74
2023/03/14 05:43:08;;;;;;;0.45;0.20;;;;;;;5.07;77.50;97503.38;4983289;28;20491;-74
2023/03/14 05:45:35;;;;;;;0.77;0.10;;;;;;;4.99;77.31;97500.31;4975414;28;20628;-74
2023/03/14 05:48:02;;;;;;;0.25;0.10;;;;;;;5.06;77.59;97522.38;4988298;28;20069;-73
2023/03/14 05:50:29;;;;;;;1.48;0.10;;;;;;;5.05;77.33;97536.25;4985491;28;20047;-74
2023/03/14 05:52:56;;;;;;;0.60;0.10;;;;;;;5.02;77.32;97532.97;4981242;28;20717;-74
2023/03/14 05:55:24;;;;;;;0.57;0.10;;;;;;;5.03;77.13;97553.56;4985118;28;20050;-74
2023/03/14 05:57:51;;;;;;;3.25;0.10;;;;;;;5.03;77.06;97552.75;4975204;28;20043;-74
2023/03/14 06:00:19;;;;;;;1.80;0.10;;;;;;;5.02;77.03;97562.25;4984309;28;20057;-74
2023/03/14 06:02:46;;;;;;;3.45;0.10;;;;;;;5.03;77.11;97563.94;4981831;28;20053;-74
2023/03/14 06:05:13;;;;;;;7.40;1.17;;;;;;;5.02;77.03;97567.44;4984418;28;20058;-74
2023/03/14 06:07:40;;;;;;;0.38;0.10;;;;;;;5.02;76.76;97570.03;4979222;28;20503;-74
2023/03/14 06:10:08;;;;;;;3.10;0.10;;;;;;;5.03;76.78;97579.44;4989536;28;20050;-74
2023/03/14 06:12:36;;;;;;;5.10;0.17;;;;;;;5.01;76.81;97570.06;4978373;28;20038;-74
2023/03/14 06:15:03;;;;;;;1.25;0.10;;;;;;;5.02;76.77;97582.97;4989881;28;20047;-74
2023/03/14 06:17:30;;;;;;;2.33;1.05;;;;;;;5.02;76.80;97580.38;4977865;28;20056;-74
2023/03/14 06:19:56;;;;;;;0.77;0.10;;;;;;;4.99;76.66;97577.94;4988659;28;20050;-74
2023/03/14 06:22:23;;;;;;;4.60;0.17;;;;;;;5.01;76.75;97607.16;4972432;28;20046;-74
2023/03/14 06:24:50;;;;;;;0.43;0.40;;;;;;;5.01;76.67;97603.72;4987709;28;20050;-74
2023/03/14 06:27:17;;;;;;;1.08;0.15;;;;;;;5.01;76.49;97622.69;4965533;28;20050;-74
2023/03/14 06:29:46;;;;;;;1.83;0.10;;;;;;;5.02;76.43;97626.09;4988300;28;20043;-74
2023/03/14 06:32:12;;;;;;;0.85;0.10;;;;;;;5.01;76.48;97630.44;4977983;28;20054;-74
2023/03/14 06:34:40;;;;;;;1.35;0.15;;;;;;;4.97;76.34;97626.31;4981879;28;20079;-74
2023/03/14 06:37:07;;;;;;;1.13;0.10;;;;;;;5.01;76.39;97639.91;4974063;28;20054;-74
2023/03/14 06:39:34;;;;;;;1.02;0.10;;;;;;;5.01;76.49;97642.50;4977618;28;20046;-74
2023/03/14 06:42:01;;;;;;;3.78;0.10;;;;;;;4.99;76.18;97645.19;4979806;28;20049;-74
2023/03/14 06:44:28;;;;;;;4.70;0.43;;;;;;;5.00;76.33;97646.84;4971398;28;20069;-75
2023/03/14 06:46:56;;;;;;;1.75;0.20;;;;;;;5.00;75.87;97652.03;4983246;28;20046;-75
2023/03/14 06:49:23;;;;;;;2.42;0.28;;;;;;;5.00;76.18;97648.59;4974360;28;20586;-75
2023/03/14 06:51:50;;;;;;;1.38;0.10;;;;;;;4.99;76.30;97655.53;4978811;28;20050;-75
2023/03/14 06:54:17;;;;;;;5.10;0.10;;;;;;;5.00;76.02;97662.38;4976748;28;20046;-75
2023/03/14 06:56:44;;;;;;;2.58;0.30;;;;;;;4.99;75.93;97672.81;4977341;28;20054;-75
2023/03/14 06:59:11;;;;;;;1.70;0.10;;;;;;;4.93;75.70;97658.41;4975505;28;20487;-74
2023/03/14 07:01:38;;;;;;;0.77;0.08;;;;;;;4.97;75.71;97672.84;4973051;28;20054;-74
2023/03/14 07:04:06;;;;;;;2.85;0.20;;;;;;;4.93;75.61;97666.16;4979403;28;20105;-75
2023/03/14 07:06:34;;;;;;;1.63;0.10;;;;;;;4.97;75.92;97689.22;4967922;28;21461;-75
2023/03/14 07:09:01;;;;;;;1.67;0.10;;;;;;;4.96;75.74;97679.78;4982392;28;20050;-75
2023/03/14 07:11:28;;;;;;;2.72;0.10;;;;;;;4.98;75.59;97692.66;4974842;28;20066;-72
2023/03/14 07:13:55;;;;;;;2.55;0.20;;;;;;;4.98;75.54;97710.78;4976696;28;20054;-74
2023/03/14 07:16:22;;;;;;;0.95;0.10;;;;;;;4.99;75.67;97712.44;4972958;28;20042;-74
2023/03/14 07:18:50;;;;;;;2.58;0.20;;;;;;;4.99;75.49;97719.38;4965342;28;20726;-73
2023/03/14 07:21:18;;;;;;;3.00;0.13;;;;;;;4.99;75.27;97722.78;4979404;28;20042;-74
2023/03/14 07:23:45;;;;;;;0.45;0.10;;;;;;;4.76;75.38;97690.19;4972069;28;20061;-72
2023/03/14 07:26:12;;;;;;;1.13;0.10;;;;;;;5.00;75.48;97727.03;4982594;28;20062;-72
2023/03/14 07:28:38;;;;;;;1.45;0.10;;;;;;;4.98;75.23;97731.47;4981661;28;20057;-71
2023/03/14 07:31:06;;;;;;;1.00;0.10;;;;;;;5.02;75.28;97743.34;4984901;28;20057;-71
2023/03/14 07:33:33;;;;;;;1.10;0.10;;;;;;;5.01;75.04;97753.75;4970891;28;20051;-71
2023/03/14 07:36:00;;;;;;;2.83;0.10;;;;;;;4.91;75.12;97746.41;4980821;28;20046;-75
2023/03/14 07:38:29;;;;;;;2.53;0.10;;;;;;;5.03;74.86;97750.19;4983809;28;20050;-76
2023/03/14 07:41:00;;;;;;;1.95;0.10;;;;;;;5.03;74.94;97760.53;4974161;28;20057;-74
2023/03/14 07:43:27;;;;;;;1.05;0.10;;;;;;;5.02;74.86;97764.03;4979022;28;20046;-72
2023/03/14 07:45:54;;;;;;;1.95;0.20;;;;;;;5.03;74.69;97768.28;4981472;28;20076;-72
2023/03/14 07:48:21;;;;;;;4.63;0.20;;;;;;;4.99;74.73;97769.34;4972611;28;20423;-72
2023/03/14 07:50:50;;;;;;;1.38;0.10;;;;;;;5.05;74.68;97781.19;4970318;28;20050;-74
2023/03/14 07:53:17;;;;;;;2.42;0.10;;;;;;;5.06;74.67;97785.44;4981444;28;20140;-73
2023/03/14 07:55:46;;;;;;;3.83;0.00;;;;;;;5.06;74.66;97785.44;4977842;28;20565;-74
2023/03/14 07:58:13;;;;;;;1.10;0.00;;;;;;;5.08;74.41;97784.47;4979238;28;20050;-73
2023/03/14 08:00:40;;;;;;;1.48;0.03;;;;;;;5.04;74.69;97777.75;4975987;28;20062;-73
2023/03/14 08:03:07;;;;;;;1.45;0.22;;;;;;;5.14;74.56;97788.53;4970519;28;20053;-75
2023/03/14 08:05:36;;;;;;;1.23;0.10;;;;;;;5.17;74.06;97794.41;4984502;28;20046;-74
2023/03/14 08:08:03;;;;;;;0.55;0.08;;;;;;;5.22;74.33;97795.97;4977323;28;20045;-76
2023/03/14 08:10:29;;;;;;;0.17;0.00;;;;;;;5.24;74.23;97784.63;4980304;28;20057;-76
2023/03/14 08:13:00;;;;;;;0.47;0.03;;;;;;;5.29;74.07;97789.59;4977483;28;20113;-75
2023/03/14 08:15:27;;;;;;;1.85;0.35;;;;;;;5.37;73.86;97795.25;4977397;28;20096;-76
2023/03/14 08:17:54;;;;;;;0.70;0.00;;;;;;;5.33;73.94;97785.97;4986868;28;20061;-75
2023/03/14 08:20:23;;;;;;;0.00;0.00;;;;;;;5.45;73.48;97798.34;4971151;28;20054;-75
2023/03/14 08:22:50;;;;;;;1.23;0.10;;;;;;;5.49;73.38;97806.81;4976567;28;20857;-74
2023/03/14 08:25:17;;;;;;;1.77;0.10;;;;;;;5.49;73.47;97815.41;4977653;28;20503;-73
2023/03/14 08:27:44;;;;;;;0.25;0.20;;;;;;;5.55;73.10;97820.31;4984970;28;20049;-75
2023/03/14 08:30:15;;;;;;;2.28;0.47;;;;;;;5.57;72.89;97828.84;4985328;28;20070;-74
2023/03/14 08:32:42;;;;;;;0.47;0.00;;;;;;;5.61;72.90;97829.56;4978947;28;20407;-74
2023/03/14 08:35:10;;;;;;;1.15;0.10;;;;;;;5.64;73.01;97830.25;4975593;28;20410;-74
2023/03/14 08:37:37;;;;;;;0.68;0.00;;;;;;;5.69;72.92;97818.84;4971705;28;20097;-73
2023/03/14 08:40:07;;;;;;;0.22;0.00;;;;;;;5.69;72.67;97817.09;4977538;28;20051;-75
2023/03/14 08:42:34;;;;;;;0.08;0.00;;;;;;;5.77;72.56;97840.03;4975253;28;20055;-72
2023/03/14 08:45:01;;;;;;;0.73;0.00;;;;;;;5.80;72.52;97825.19;4984123;28;20168;-72
2023/03/14 08:47:29;;;;;;;1.55;0.00;;;;;;;5.83;72.39;97829.41;4983256;28;20054;-73
2023/03/14 08:49:56;;;;;;;1.48;0.10;;;;;;;5.86;72.30;97818.91;4977057;28;20157;-73
2023/03/14 08:52:23;;;;;;;1.98;0.00;;;;;;;5.90;72.37;97833.41;4979043;28;20779;-74
2023/03/14 08:54:50;;;;;;;0.40;0.00;;;;;;;5.91;71.82;97829.88;4979156;28;20518;-76
2023/03/14 08:57:17;;;;;;;0.10;0.00;;;;;;;5.95;71.87;97831.47;4972337;28;20053;-74
2023/03/14 08:59:44;;;;;;;0.20;0.00;;;;;;;5.97;71.90;97824.44;4977124;28;20046;-72
2023/03/14 09:02:12;;;;;;;0.05;0.00;;;;;;;6.00;71.88;97826.88;4986614;28;20400;-73
2023/03/14 09:04:40;;;;;;;2.30;0.10;;;;;;;6.03;71.71;97838.88;4976697;28;20396;-73
2023/03/14 09:07:08;;;;;;;0.10;0.00;;;;;;;6.06;71.72;97842.19;4975528;28;20054;-72
2023/03/14 09:09:35;;;;;;;2.10;0.00;;;;;;;6.09;71.50;97841.19;4973330;28;20046;-73
2023/03/14 09:12:01;;;;;;;0.52;0.00;;;;;;;6.11;71.72;97844.53;4979452;28;20407;-74
2023/03/14 09:14:28;;;;;;;1.70;0.00;;;;;;;6.15;71.37;97840.03;4982941;28;20050;-75
2023/03/14 09:16:55;;;;;;;9.35;0.52;;;;;;;6.16;71.51;97846.91;4970974;28;20059;-74
2023/03/14 09:19:22;;;;;;;0.65;0.20;;;;;;;6.19;71.01;97852.78;4982804;28;20061;-74
2023/03/14 09:21:50;;;;;;;0.05;0.00;;;;;;;6.21;71.17;97852.72;4984698;28;20061;-74
2023/03/14 09:24:18;;;;;;;0.63;0.00;;;;;;;6.23;71.49;97858.66;4969039;28;20053;-73
2023/03/14 09:26:45;;;;;;;1.38;0.08;;;;;;;6.24;71.10;97863.78;4980330;28;20490;-73
2023/03/14 09:29:12;;;;;;;0.10;0.00;;;;;;;6.24;71.23;97863.78;4978273;28;20042;-73
2023/03/14 09:31:39;;;;;;;0.30;0.00;;;;;;;6.27;70.84;97870.56;4979940;28;20049;-74
2023/03/14 09:34:06;;;;;;;0.20;0.00;;;;;;;6.26;70.99;97884.44;4972281;28;20061;-73
2023/03/14 09:36:32;;;;;;;0.10;0.05;;;;;;;6.34;70.64;97891.84;4985665;28;20039;-76
2023/03/14 09:39:01;;;;;;;1.45;0.10;;;;;;;6.41;70.64;97894.09;4967425;28;20049;-73
2023/03/14 09:41:32;;;;;;;0.85;0.00;;;;;;;6.38;71.02;97899.44;4974970;28;20042;-73
2023/03/14 09:44:05;;;;;;;0.10;0.00;;;;;;;6.47;70.76;97896.38;4977534;28;20129;-76
2023/03/14 09:46:36;;;;;;;0.50;0.00;;;;;;;6.55;70.74;97890.84;4977808;28;20490;-78
2023/03/14 09:49:03;;;;;;;0.20;0.00;;;;;;;6.53;70.64;97874.50;4986845;28;20050;-78
2023/03/14 09:51:32;;;;;;;0.57;0.00;;;;;;;6.62;70.46;97891.38;4969954;28;20054;-76
2023/03/14 09:53:59;;;;;;;0.32;0.10;;;;;;;6.64;70.33;97900.75;4987858;28;20050;-77
2023/03/14 09:56:32;;;;;;;0.30;0.00;;;;;;;6.58;70.17;97885.50;4977543;28;20047;-76
2023/03/14 09:59:01;;;;;;;0.10;0.00;;;;;;;6.67;70.38;97900.59;4979245;28;20046;-77
2023/03/14 10:01:30;;;;;;;0.00;0.00;;;;;;;6.69;70.40;97897.97;4981318;28;20046;-77
2023/03/14 10:03:59;;;;;;;0.10;0.00;;;;;;;6.72;69.81;97905.59;4980084;28;20053;-76
2023/03/14 10:06:29;;;;;;;0.00;0.00;;;;;;;6.74;69.97;97907.19;4984852;28;20055;-76
2023/03/14 10:08:57;;;;;;;0.15;0.00;;;;;;;6.78;69.71;97907.03;4975566;28;20043;-77
2023/03/14 10:11:25;;;;;;;0.80;0.00;;;;;;;6.81;69.83;97918.09;4981365;28;20050;-76
2023/03/14 10:14:07;;;;;;;0.10;0.00;;;;;;;6.84;69.78;97919.72;4981970;28;20491;-77
2023/03/14 10:16:36;;;;;;;0.10;0.00;;;;;;;6.86;69.57;97931.69;4975103;28;20062;-76
2023/03/14 10:19:06;;;;;;;0.98;0.00;;;;;;;6.89;69.43;97934.13;4980524;28;20521;-76
2023/03/14 10:21:39;;;;;;;0.08;0.00;;;;;;;6.93;69.16;97930.47;4970370;28;20051;-77
2023/03/14 10:24:21;;;;;;;0.10;0.00;;;;;;;6.95;69.23;97922.63;4976100;28;20148;-77
2023/03/14 10:26:50;;;;;;;0.00;0.00;;;;;;;6.98;69.09;97925.06;4986684;28;20419;-77
2023/03/14 10:29:18;;;;;;;0.00;0.00;;;;;;;6.98;69.00;97920.69;4977464;28;20101;-76
2023/03/14 10:31:52;;;;;;;0.10;0.00;;;;;;;7.04;68.73;97934.31;4979251;28;20487;-77
2023/03/14 10:34:24;;;;;;;0.40;0.00;;;;;;;7.06;68.92;97933.31;4980304;28;20046;-76
2023/03/14 10:36:55;;;;;;;0.00;0.00;;;;;;;7.09;68.67;97927.97;4974182;28;21021;-77
2023/03/14 10:39:33;;;;;;;0.00;0.00;;;;;;;7.12;68.76;97932.16;4980773;28;20050;-76
2023/03/14 10:42:06;;;;;;;0.00;0.00;;;;;;;7.14;68.72;97933.78;4974084;28;20045;-77
2023/03/14 10:44:36;;;;;;;0.38;0.00;;;;;;;7.16;68.50;97937.09;4978992;28;20046;-77
2023/03/14 10:47:05;;;;;;;0.22;0.00;;;;;;;7.19;68.27;97933.53;4976269;28;20104;-77
2023/03/14 10:49:35;;;;;;;1.55;0.00;;;;;;;7.22;68.60;97944.59;4977133;28;20050;-78
2023/03/14 10:52:13;;;;;;;2.20;0.00;;;;;;;7.25;68.45;97948.78;4969294;28;20046;-76
2023/03/14 10:54:40;;;;;;;0.10;0.00;;;;;;;7.26;68.30;97945.28;4981748;28;20053;-77
2023/03/14 10:57:08;;;;;;;0.03;0.00;;;;;;;7.27;68.27;97959.94;4981564;28;20057;-76
2023/03/14 10:59:38;;;;;;;0.20;0.00;;;;;;;7.30;67.96;97962.38;4977629;28;20125;-76
2023/03/14 11:02:20;;;;;;;0.85;0.00;;;;;;;7.33;68.03;97970.03;4983370;28;20052;-76
2023/03/14 11:05:02;;;;;;;0.00;0.00;;;;;;;7.36;68.33;97971.63;4971896;28;20046;-76
2023/03/14 11:07:34;;;;;;;0.10;0.00;;;;;;;7.38;67.85;97975.00;4978666;28;20077;-76
2023/03/14 11:10:09;;;;;;;0.00;0.00;;;;;;;7.40;67.81;97974.00;4976775;28;20415;-76
2023/03/14 11:12:50;;;;;;;1.30;0.10;;;;;;;7.40;67.60;97974.00;4972826;28;20058;-76
2023/03/14 11:15:23;;;;;;;1.45;0.00;;;;;;;7.38;67.62;97973.22;4974156;28;20050;-76
2023/03/14 11:18:00;;;;;;;0.20;0.00;;;;;;;7.44;67.57;97985.91;4983070;28;20551;-76
2023/03/14 11:20:36;;;;;;;0.45;0.00;;;;;;;7.43;67.20;97983.41;4984969;28;20487;-76
2023/03/14 11:23:13;;;;;;;0.10;0.00;;;;;;;7.46;67.66;97987.56;4971813;28;20055;-76
2023/03/14 11:25:49;;;;;;;0.08;0.00;;;;;;;7.42;66.92;97985.13;4980915;28;20101;-76
2023/03/14 11:28:21;;;;;;;0.38;0.00;;;;;;;7.44;67.19;97993.69;4964318;28;20050;-76
2023/03/14 11:30:52;;;;;;;1.00;0.03;;;;;;;7.44;67.01;97991.09;4968650;28;20042;-76
2023/03/14 11:33:26;;;;;;;0.05;0.00;;;;;;;7.46;66.98;98003.16;4975788;28;20058;-78
2023/03/14 11:36:00;;;;;;;0.50;0.10;;;;;;;7.46;66.87;98010.94;4982441;28;20050;-78
2023/03/14 11:38:36;;;;;;;0.28;0.00;;;;;;;7.46;66.79;98016.13;4977902;28;20113;-77
2023/03/14 11:41:05;;;;;;;1.13;0.00;;;;;;;7.44;66.61;98022.25;4971652;28;20051;-76
2023/03/14 11:43:39;;;;;;;0.43;0.35;;;;;;;7.42;66.63;98018.88;4970733;28;20042;-74
2023/03/14 11:46:12;;;;;;;2.00;0.00;;;;;;;7.42;66.73;98029.28;4983426;28;20131;-76
2023/03/14 11:48:44;;;;;;;0.20;0.00;;;;;;;7.40;67.04;98036.34;4982461;28;20503;-76